Morning Cindy — 3FQY7 — position and weather

sailwx.info

Track history (hours):
 
Tides and Currents Weather Stations Pressure Air Temp Water Temp Dewpoint Dewpoint Depression Visibility Wind Speed Wind Dir Waves Ship Positions

Morning Cindy

Last reported at 2018-May-21 13:16 UTC. Time now 2018-May-23 15:08 UTC.
Position N 35°05' E 129°16'.

Length 199 m; draft 9.2 m.

Type: Cargo ship. MMSI: 353647000.

Date/timePositionNaut miles runAvg speedWind from/ knotsBaromVisibWave heightAir tempDewpointWater temp
2018-May-21 13:16N 35°05' E 129°16'517.4
2018-May-21 13:00N 35°01' E 129°12'  
2018-May-14 08:15N 41°14' E 140°09'518.0
2018-May-14 07:57N 41°17' E 140°14'717.0
2018-May-14 07:31N 41°21' E 140°23'815.1
2018-May-14 07:00N 41°26' E 140°31'816.4
2018-May-14 06:30N 41°31' E 140°39'816.5
2018-May-14 06:01N 41°36' E 140°48'714.5
2018-May-14 05:30N 41°39' E 140°57'713.9
2018-May-14 04:59N 41°39' E 141°06'816.3
2018-May-14 04:30N 41°40' E 141°17'816.5
2018-May-14 04:00N 41°41' E 141°28'714.6
2018-May-14 03:30N 41°42' E 141°38'  
Track history (hours):
 
Tides and Currents Weather Stations Pressure Air Temp Water Temp Dewpoint Dewpoint Depression Visibility Wind Speed Wind Dir Waves Ship Positions

Morning Cindy

Last reported at 2018-May-21 13:16 UTC. Time now 2018-May-23 15:08 UTC.
Position N 35°05' E 129°16'.

Length 199 m; draft 9.2 m.

Type: Cargo ship. MMSI: 353647000.

Date/timePositionNaut miles runAvg speedWind from/ knotsBaromVisibWave heightAir tempDewpointWater temp
2018-May-21 13:16N 35°05' E 129°16'517.4
2018-May-21 13:00N 35°01' E 129°12'  
2018-May-14 08:15N 41°14' E 140°09'518.0
2018-May-14 07:57N 41°17' E 140°14'717.0
2018-May-14 07:31N 41°21' E 140°23'815.1
2018-May-14 07:00N 41°26' E 140°31'816.4
2018-May-14 06:30N 41°31' E 140°39'816.5
2018-May-14 06:01N 41°36' E 140°48'714.5
2018-May-14 05:30N 41°39' E 140°57'713.9
2018-May-14 04:59N 41°39' E 141°06'816.3
2018-May-14 04:30N 41°40' E 141°17'816.5
2018-May-14 04:00N 41°41' E 141°28'714.6
2018-May-14 03:30N 41°42' E 141°38'  

Dump ship's entire track history